Time,TemperatureF,DewpointF,PressureIn,WindDirection,WindDirectionDegrees,WindSpeedMPH,WindSpeedGustMPH,Humidity,HourlyPrecipIn,Conditions,Clouds,dailyrainin,SolarRadiationWatts/m^2,SoftwareType,DateUTC
2013-03-30 00:00:00,61.0,59.6,29.98,South,189,0.0,2.0,95,0.00,RA,SCT,0.00,0.0,WeatherDisplay:10.37,2013-03-30 10:00:00,
2013-03-30 00:10:00,60.8,59.3,29.97,South,189,0.0,1.0,95,0.00,BKN,SCT,0.00,0.0,WeatherDisplay:10.37,2013-03-30 10:10:00,
2013-03-30 00:20:00,60.6,59.2,29.97,South,189,0.0,0.0,95,0.00,BKN,SCT,0.00,0.0,WeatherDisplay:10.37,2013-03-30 10:20:00,
2013-03-30 00:30:00,60.5,59.0,29.97,South,189,0.0,0.0,95,0.00,BKN,SCT,0.00,0.0,WeatherDisplay:10.37,2013-03-30 10:30:00,
2013-03-30 00:40:00,60.2,58.8,29.97,South,189,0.0,1.0,95,0.00,BKN,SCT,0.00,0.0,WeatherDisplay:10.37,2013-03-30 10:40:00,
2013-03-30 00:50:00,60.2,59.1,29.97,South,189,0.0,3.0,96,0.00,BKN,SCT,0.00,0.0,WeatherDisplay:10.37,2013-03-30 10:50:00,
2013-03-30 01:00:00,60.3,59.2,29.96,South,189,0.0,3.0,96,0.00,BKN,SCT,0.00,0.0,WeatherDisplay:10.37,2013-03-30 11:00:00,
2013-03-30 01:10:00,60.2,59.1,29.96,South,189,0.0,2.0,96,0.00,BKN,SCT,0.00,0.0,WeatherDisplay:10.37,2013-03-30 11:10:00,
2013-03-30 01:20:00,60.2,59.1,29.96,South,189,0.0,2.0,96,0.00,BKN,SCT,0.00,0.0,WeatherDisplay:10.37,2013-03-30 11:20:00,
2013-03-30 01:30:00,60.3,59.2,29.96,South,189,0.0,1.0,96,0.00,BKN,SCT,0.00,0.0,WeatherDisplay:10.37,2013-03-30 11:30:00,
2013-03-30 01:40:00,60.5,59.3,29.96,South,189,0.0,3.0,96,0.00,BKN,SCT,0.00,0.0,WeatherDisplay:10.37,2013-03-30 11:40:00,
2013-03-30 01:50:00,60.7,59.8,29.96,South,189,0.0,1.0,97,0.00,BKN,SCT,0.00,0.0,WeatherDisplay:10.37,2013-03-30 11:50:00,
2013-03-30 02:00:00,60.9,60.0,29.96,South,189,0.0,0.0,97,0.00,BKN,SCT,0.00,0.0,WeatherDisplay:10.37,2013-03-30 12:00:00,
2013-03-30 02:10:00,61.0,60.2,29.95,South,189,0.0,1.0,97,0.00,OVC,SCT,0.00,0.0,WeatherDisplay:10.37,2013-03-30 12:10:00,
2013-03-30 02:20:00,61.2,60.3,29.95,South,189,0.0,0.0,97,0.00,OVC,SCT,0.00,0.0,WeatherDisplay:10.37,2013-03-30 12:20:00,
2013-03-30 02:30:00,61.3,60.4,29.94,South,189,0.0,0.0,97,0.00,OVC,SCT,0.00,0.0,WeatherDisplay:10.37,2013-03-30 12:30:00,
2013-03-30 02:40:00,61.6,60.7,29.94,South,177,3.0,7.0,97,0.00,OVC,SCT,0.00,0.0,WeatherDisplay:10.37,2013-03-30 12:40:00,
2013-03-30 02:50:00,61.9,60.8,29.93,South,180,2.0,7.0,96,0.00,OVC,SCT,0.00,0.0,WeatherDisplay:10.37,2013-03-30 12:50:00,
2013-03-30 03:00:00,62.0,60.6,29.93,South,177,0.0,4.0,95,0.00,OVC,SCT,0.00,0.0,WeatherDisplay:10.37,2013-03-30 13:00:00,
2013-03-30 03:10:00,61.8,60.4,29.93,South,177,2.0,3.0,95,0.00,OVC,SCT,0.00,0.0,WeatherDisplay:10.37,2013-03-30 13:10:00,
2013-03-30 03:20:00,61.4,59.7,29.93,South,177,0.0,3.0,94,0.00,CLR,SCT,0.00,0.0,WeatherDisplay:10.37,2013-03-30 13:20:00,
2013-03-30 03:30:00,60.9,59.2,29.93,South,177,0.0,0.0,94,0.00,CLR,SCT,0.00,0.0,WeatherDisplay:10.37,2013-03-30 13:30:00,
2013-03-30 03:40:00,60.5,59.1,29.93,South,177,0.0,2.0,95,0.00,CLR,SCT,0.00,0.0,WeatherDisplay:10.37,2013-03-30 13:40:00,
2013-03-30 03:50:00,60.4,59.3,29.93,South,177,1.0,2.0,96,0.00,CLR,SCT,0.00,0.0,WeatherDisplay:10.37,2013-03-30 13:50:00,
2013-03-30 04:00:00,60.6,59.5,29.93,South,174,1.0,3.0,96,0.00,CLR,SCT,0.00,0.0,WeatherDisplay:10.37,2013-03-30 14:00:00,
2013-03-30 04:10:00,60.8,59.6,29.93,South,171,0.0,1.0,96,0.00,FEW,SCT,0.00,0.0,WeatherDisplay:10.37,2013-03-30 14:10:00,
2013-03-30 04:20:00,61.0,59.9,29.93,South,169,0.0,1.0,96,0.00,FEW,SCT,0.00,0.0,WeatherDisplay:10.37,2013-03-30 14:20:00,
2013-03-30 04:30:00,61.2,60.3,29.93,South,169,0.0,2.0,97,0.00,FEW,SCT,0.00,0.0,WeatherDisplay:10.37,2013-03-30 14:30:00,
2013-03-30 04:40:00,61.4,60.2,29.93,South,169,0.0,3.0,96,0.01,RA,SCT,0.01,0.0,WeatherDisplay:10.37,2013-03-30 14:40:00,
2013-03-30 04:50:00,61.3,60.2,29.93,South,169,1.0,3.0,96,0.00,FEW,SCT,0.01,0.0,WeatherDisplay:10.37,2013-03-30 14:50:00,
2013-03-30 05:00:00,61.2,60.1,29.93,South,169,0.0,2.0,96,0.00,FEW,SCT,0.01,0.0,WeatherDisplay:10.37,2013-03-30 15:00:00,
2013-03-30 05:10:00,61.1,59.9,29.93,South,169,0.0,2.0,96,0.00,FEW,SCT,0.01,0.0,WeatherDisplay:10.37,2013-03-30 15:10:00,
2013-03-30 05:20:00,60.9,59.8,29.93,South,169,1.0,4.0,96,0.00,FEW,SCT,0.01,0.0,WeatherDisplay:10.37,2013-03-30 15:20:00,
2013-03-30 05:30:00,60.7,59.3,29.93,SE,145,3.0,5.0,95,0.00,FEW,SCT,0.01,0.0,WeatherDisplay:10.37,2013-03-30 15:30:00,
2013-03-30 05:40:00,60.6,59.2,29.93,SSE,153,2.0,6.0,95,0.00,FEW,SCT,0.01,0.0,WeatherDisplay:10.37,2013-03-30 15:40:00,
2013-03-30 05:50:00,60.6,59.5,29.94,SSE,157,1.0,6.0,96,0.00,FEW,SCT,0.01,0.0,WeatherDisplay:10.37,2013-03-30 15:50:00,
2013-03-30 06:00:00,60.6,59.2,29.94,SSE,161,0.0,5.0,95,0.00,FEW,SCT,0.01,0.0,WeatherDisplay:10.37,2013-03-30 16:00:00,
2013-03-30 06:10:00,60.4,59.0,29.94,SSE,161,0.0,2.0,95,0.00,FEW,SCT,0.01,0.0,WeatherDisplay:10.37,2013-03-30 16:10:00,
2013-03-30 06:20:00,60.1,58.4,29.95,SSE,161,0.0,2.0,94,0.00,FEW,SCT,0.01,0.0,WeatherDisplay:10.37,2013-03-30 16:20:00,
2013-03-30 06:30:00,59.8,58.4,29.95,SSE,161,0.0,1.0,95,0.00,FEW,SCT,0.01,0.0,WeatherDisplay:10.37,2013-03-30 16:30:00,
2013-03-30 06:40:00,59.7,58.3,29.96,SSE,161,0.0,2.0,95,0.00,FEW,SCT,0.01,0.1,WeatherDisplay:10.37,2013-03-30 16:40:00,
2013-03-30 06:50:00,59.7,58.6,29.96,SSE,161,0.0,2.0,96,0.00,FEW,SCT,0.01,0.2,WeatherDisplay:10.37,2013-03-30 16:50:00,
2013-03-30 07:00:00,59.7,58.6,29.97,SSE,161,0.0,0.0,96,0.00,FEW,SCT,0.01,1.9,WeatherDisplay:10.37,2013-03-30 17:00:00,
2013-03-30 07:10:00,59.9,58.8,29.97,SSE,161,0.0,1.0,96,0.00,FEW,SCT,0.01,2.2,WeatherDisplay:10.37,2013-03-30 17:10:00,
2013-03-30 07:20:00,60.5,59.6,29.98,SSE,161,0.0,0.0,97,0.00,CLR,SCT,0.01,1.5,WeatherDisplay:10.37,2013-03-30 17:20:00,
2013-03-30 07:30:00,60.8,59.7,29.98,SSE,161,1.0,3.0,96,0.00,CLR,SCT,0.01,3.7,WeatherDisplay:10.37,2013-03-30 17:30:00,
2013-03-30 07:40:00,61.2,60.1,29.98,SSE,161,1.0,3.0,96,0.00,CLR,SCT,0.01,27.6,WeatherDisplay:10.37,2013-03-30 17:40:00,
2013-03-30 07:50:00,62.7,61.8,29.99,SSE,161,1.0,3.0,97,0.00,CLR,SCT,0.01,16.1,WeatherDisplay:10.37,2013-03-30 17:50:00,
2013-03-30 08:00:00,63.8,62.1,29.99,SSE,163,1.0,5.0,94,0.00,CLR,SCT,0.01,33.3,WeatherDisplay:10.37,2013-03-30 18:00:00,
2013-03-30 08:10:00,65.4,63.0,29.99,SSE,163,1.0,3.0,92,0.00,SCT,SCT,0.01,65.8,WeatherDisplay:10.37,2013-03-30 18:10:00,
2013-03-30 08:20:00,66.9,62.9,29.99,WSW,246,5.0,6.0,87,0.00,SCT,SCT,0.01,30.8,WeatherDisplay:10.37,2013-03-30 18:20:00,
2013-03-30 08:30:00,67.5,64.2,29.99,West,260,2.0,5.0,89,0.00,SCT,SCT,0.01,34.8,WeatherDisplay:10.37,2013-03-30 18:30:00,
2013-03-30 08:40:00,67.8,64.1,30.00,NW,309,3.0,7.0,88,0.00,SCT,SCT,0.01,34.8,WeatherDisplay:10.37,2013-03-30 18:40:00,
2013-03-30 08:50:00,67.9,64.5,30.00,NW,311,5.0,8.0,89,0.00,SCT,SCT,0.01,43.0,WeatherDisplay:10.37,2013-03-30 18:50:00,
2013-03-30 09:00:00,67.7,64.7,30.01,NW,323,0.0,6.0,90,0.00,SCT,SCT,0.01,55.8,WeatherDisplay:10.37,2013-03-30 19:00:00,
2013-03-30 09:10:00,67.7,65.0,30.00,NW,320,0.0,1.0,91,0.00,SCT,SCT,0.01,91.0,WeatherDisplay:10.37,2013-03-30 19:10:00,
2013-03-30 09:20:00,68.0,64.3,30.01,NW,320,0.0,2.0,88,0.00,SCT,SCT,0.01,94.6,WeatherDisplay:10.37,2013-03-30 19:20:00,
2013-03-30 09:30:00,68.4,64.7,30.00,NW,315,2.0,5.0,88,0.00,SCT,SCT,0.01,278.8,WeatherDisplay:10.37,2013-03-30 19:30:00,
2013-03-30 09:40:00,69.5,65.1,30.00,NW,326,2.0,5.0,86,0.00,SCT,SCT,0.01,149.9,WeatherDisplay:10.37,2013-03-30 19:40:00,
2013-03-30 09:50:00,70.1,65.7,30.00,NW,325,1.0,3.0,86,0.00,SCT,SCT,0.01,465.0,WeatherDisplay:10.37,2013-03-30 19:50:00,
2013-03-30 10:00:00,71.4,64.9,30.00,WSW,245,3.0,5.0,80,0.00,SCT,SCT,0.01,183.7,WeatherDisplay:10.37,2013-03-30 20:00:00,
2013-03-30 10:10:00,70.8,64.3,30.00,WSW,240,1.0,6.0,80,0.00,BKN,SCT,0.01,127.8,WeatherDisplay:10.37,2013-03-30 20:10:00,
2013-03-30 10:20:00,70.1,63.7,30.00,SW,223,2.0,6.0,80,0.00,BKN,SCT,0.01,120.6,WeatherDisplay:10.37,2013-03-30 20:20:00,
2013-03-30 10:30:00,69.8,62.6,30.00,WSW,249,5.0,6.0,78,0.00,BKN,SCT,0.01,181.1,WeatherDisplay:10.37,2013-03-30 20:30:00,
2013-03-30 10:40:00,70.2,64.1,30.00,West,269,2.0,5.0,81,0.00,BKN,SCT,0.01,333.0,WeatherDisplay:10.37,2013-03-30 20:40:00,
2013-03-30 10:50:00,70.6,62.7,30.00,West,278,5.0,7.0,76,0.00,BKN,SCT,0.01,173.9,WeatherDisplay:10.37,2013-03-30 20:50:00,
2013-03-30 11:00:00,70.5,63.3,30.00,NW,317,3.0,6.0,78,0.00,BKN,SCT,0.01,269.6,WeatherDisplay:10.37,2013-03-30 21:00:00,
2013-03-30 11:10:00,70.4,63.9,29.99,NNW,328,2.0,6.0,80,0.00,BKN,SCT,0.01,685.9,WeatherDisplay:10.37,2013-03-30 21:10:00,
2013-03-30 11:20:00,71.8,64.9,29.99,North,349,2.0,5.0,79,0.00,BKN,SCT,0.01,824.7,WeatherDisplay:10.37,2013-03-30 21:20:00,
2013-03-30 11:30:00,73.0,65.0,29.99,North,349,0.0,6.0,76,0.00,BKN,SCT,0.01,994.9,WeatherDisplay:10.37,2013-03-30 21:30:00,
2013-03-30 11:40:00,74.5,66.1,29.98,North,7,0.0,6.0,75,0.00,BKN,SCT,0.01,677.1,WeatherDisplay:10.37,2013-03-30 21:40:00,
2013-03-30 11:50:00,74.6,65.0,29.98,North,7,0.0,5.0,72,0.00,BKN,SCT,0.01,495.5,WeatherDisplay:10.37,2013-03-30 21:50:00,
2013-03-30 12:00:00,74.2,66.5,29.97,North,356,2.0,6.0,77,0.00,BKN,SCT,0.01,406.9,WeatherDisplay:10.37,2013-03-30 22:00:00,
2013-03-30 12:10:00,73.2,66.3,29.97,North,5,2.0,10.0,79,0.00,BKN,SCT,0.01,567.5,WeatherDisplay:10.37,2013-03-30 22:10:00,
2013-03-30 12:20:00,73.3,65.3,29.96,NE,45,1.0,8.0,76,0.00,BKN,SCT,0.01,380.4,WeatherDisplay:10.37,2013-03-30 22:20:00,
2013-03-30 12:30:00,73.1,64.7,29.97,NE,46,2.0,6.0,75,0.00,BKN,SCT,0.01,433.3,WeatherDisplay:10.37,2013-03-30 22:30:00,
2013-03-30 12:40:00,73.0,65.7,29.96,NE,46,2.0,7.0,78,0.00,BKN,SCT,0.01,534.1,WeatherDisplay:10.37,2013-03-30 22:40:00,
2013-03-30 12:50:00,73.4,64.6,29.96,NE,56,5.0,7.0,74,0.00,BKN,SCT,0.01,582.0,WeatherDisplay:10.37,2013-03-30 22:50:00,
2013-03-30 13:00:00,73.9,65.9,29.95,NE,40,2.0,9.0,76,0.00,BKN,SCT,0.01,500.3,WeatherDisplay:10.37,2013-03-30 23:00:00,
2013-03-30 13:10:00,73.5,65.9,29.95,NNE,31,3.0,12.0,77,0.00,BKN,SCT,0.01,382.0,WeatherDisplay:10.37,2013-03-30 23:10:00,
2013-03-30 13:20:00,72.6,65.3,29.94,NE,45,6.0,12.0,78,0.00,BKN,SCT,0.01,419.5,WeatherDisplay:10.37,2013-03-30 23:20:00,
2013-03-30 13:30:00,72.0,64.4,29.94,NE,53,3.0,8.0,77,0.00,BKN,SCT,0.01,303.5,WeatherDisplay:10.37,2013-03-30 23:30:00,
2013-03-30 13:40:00,71.5,64.6,29.94,ENE,74,2.0,8.0,79,0.00,BKN,SCT,0.01,298.6,WeatherDisplay:10.37,2013-03-30 23:40:00,
2013-03-30 13:50:00,71.4,64.5,29.93,ENE,58,3.0,8.0,79,0.00,BKN,SCT,0.01,310.5,WeatherDisplay:10.37,2013-03-30 23:50:00,
2013-03-30 14:00:00,71.7,65.6,29.93,ENE,60,2.0,7.0,81,0.00,BKN,SCT,0.01,265.7,WeatherDisplay:10.37,2013-03-31 00:00:00,
2013-03-30 14:10:00,71.6,64.0,29.93,NE,38,1.0,7.0,77,0.00,BKN,SCT,0.01,235.6,WeatherDisplay:10.37,2013-03-31 00:10:00,
2013-03-30 14:20:00,71.5,63.1,29.93,East,82,1.0,5.0,75,0.00,-RA,SCT,0.01,267.0,WeatherDisplay:10.37,2013-03-31 00:20:00,
2013-03-30 14:30:00,71.5,63.2,29.93,ENE,59,1.0,3.0,75,0.00,-RA,SCT,0.01,171.2,WeatherDisplay:10.37,2013-03-31 00:30:00,
2013-03-30 14:40:00,71.5,63.5,29.92,North,354,0.0,3.0,76,0.00,-RA,SCT,0.01,132.5,WeatherDisplay:10.37,2013-03-31 00:40:00,
2013-03-30 14:50:00,71.1,62.8,29.92,NNW,336,0.0,4.0,75,0.00,-RA,SCT,0.01,132.0,WeatherDisplay:10.37,2013-03-31 00:50:00,
2013-03-30 15:00:00,71.0,63.1,29.92,NNW,346,2.0,4.0,76,0.00,-RA,SCT,0.01,122.6,WeatherDisplay:10.37,2013-03-31 01:00:00,
2013-03-30 15:10:00,70.2,63.7,29.92,North,1,2.0,6.0,80,0.00,-RA,SCT,0.01,96.4,WeatherDisplay:10.37,2013-03-31 01:10:00,
2013-03-30 15:20:00,69.7,64.7,29.91,North,9,5.0,8.0,84,0.00,-RA,SCT,0.01,101.5,WeatherDisplay:10.37,2013-03-31 01:20:00,
2013-03-30 15:30:00,69.1,64.4,29.92,NE,38,1.0,8.0,85,0.00,-RA,SCT,0.01,101.1,WeatherDisplay:10.37,2013-03-31 01:30:00,
2013-03-30 15:40:00,68.7,63.7,29.92,NNE,33,3.0,8.0,84,0.00,-RA,SCT,0.01,80.7,WeatherDisplay:10.37,2013-03-31 01:40:00,
2013-03-30 15:50:00,68.5,63.8,29.92,NNE,32,2.0,8.0,85,0.00,-RA,SCT,0.01,64.3,WeatherDisplay:10.37,2013-03-31 01:50:00,
2013-03-30 16:00:00,68.4,63.0,29.92,NNE,21,2.0,6.0,83,0.00,-RA,SCT,0.01,53.4,WeatherDisplay:10.37,2013-03-31 02:00:00,
2013-03-30 16:10:00,68.5,63.1,29.92,NE,34,3.0,7.0,83,0.00,-RA,SCT,0.01,53.6,WeatherDisplay:10.37,2013-03-31 02:10:00,
2013-03-30 16:20:00,68.2,62.5,29.92,NNE,20,1.0,5.0,82,0.00,-RA,SCT,0.01,33.4,WeatherDisplay:10.37,2013-03-31 02:20:00,
2013-03-30 16:30:00,68.1,62.7,29.92,NNE,18,1.0,5.0,83,0.00,-RA,SCT,0.01,35.0,WeatherDisplay:10.37,2013-03-31 02:30:00,
2013-03-30 16:40:00,67.9,62.2,29.92,North,3,1.0,7.0,82,0.00,-RA,SCT,0.01,16.7,WeatherDisplay:10.37,2013-03-31 02:40:00,
2013-03-30 16:50:00,67.7,61.6,29.92,NE,34,2.0,7.0,81,0.00,-RA,SCT,0.01,16.9,WeatherDisplay:10.37,2013-03-31 02:50:00,
2013-03-30 17:00:00,67.5,61.8,29.92,North,4,3.0,7.0,82,0.00,-RA,SCT,0.01,6.7,WeatherDisplay:10.37,2013-03-31 03:00:00,
2013-03-30 17:10:00,67.2,61.5,29.92,NNE,20,2.0,7.0,82,0.00,-RA,SCT,0.01,8.8,WeatherDisplay:10.37,2013-03-31 03:10:00,
2013-03-30 17:20:00,67.1,62.1,29.92,NNE,33,2.0,7.0,84,0.00,BKN,SCT,0.01,14.4,WeatherDisplay:10.37,2013-03-31 03:20:00,
2013-03-30 17:30:00,67.5,62.1,29.92,NE,34,0.0,4.0,83,0.00,BKN,SCT,0.01,5.0,WeatherDisplay:10.37,2013-03-31 03:30:00,
2013-03-30 17:40:00,67.3,61.6,29.92,East,81,2.0,5.0,82,0.00,BKN,SCT,0.01,2.1,WeatherDisplay:10.37,2013-03-31 03:40:00,
2013-03-30 17:50:00,66.9,62.3,29.92,NNE,31,2.0,5.0,85,0.00,BKN,SCT,0.01,0.4,WeatherDisplay:10.37,2013-03-31 03:50:00,
2013-03-30 18:00:00,66.4,62.4,29.93,North,3,1.0,3.0,87,0.00,BKN,SCT,0.01,0.3,WeatherDisplay:10.37,2013-03-31 04:00:00,
2013-03-30 18:10:00,65.6,62.6,29.93,NNW,330,5.0,7.0,90,0.01,RA,SCT,0.02,0.1,WeatherDisplay:10.37,2013-03-31 04:10:00,
2013-03-30 18:20:00,64.9,62.2,29.93,NNW,347,0.0,5.0,91,0.01,RA,SCT,0.03,0.1,WeatherDisplay:10.37,2013-03-31 04:20:00,
2013-03-30 18:30:00,64.6,62.3,29.93,NNW,346,2.0,3.0,92,0.00,BKN,SCT,0.03,0.0,WeatherDisplay:10.37,2013-03-31 04:30:00,
2013-03-30 18:40:00,64.4,62.3,29.94,NNW,346,0.0,3.0,93,0.00,BKN,SCT,0.03,0.0,WeatherDisplay:10.37,2013-03-31 04:40:00,
2013-03-30 18:50:00,64.2,62.1,29.94,NNW,346,0.0,2.0,93,0.00,BKN,SCT,0.03,0.0,WeatherDisplay:10.37,2013-03-31 04:50:00,
2013-03-30 19:00:00,63.9,61.8,29.94,NNW,346,0.0,2.0,93,0.00,BKN,SCT,0.03,0.0,WeatherDisplay:10.37,2013-03-31 05:00:00,
2013-03-30 19:10:00,63.8,61.7,29.94,NNW,346,0.0,2.0,93,0.00,BKN,SCT,0.03,0.0,WeatherDisplay:10.37,2013-03-31 05:10:00,
2013-03-30 19:20:00,63.6,61.2,29.94,NNE,16,0.0,3.0,92,0.00,BKN,SCT,0.03,0.0,WeatherDisplay:10.37,2013-03-31 05:20:00,
2013-03-30 19:30:00,63.5,61.4,29.94,NE,44,0.0,1.0,93,0.00,BKN,SCT,0.03,0.0,WeatherDisplay:10.37,2013-03-31 05:30:00,
2013-03-30 19:40:00,63.4,61.3,29.94,NE,44,0.0,2.0,93,0.00,BKN,SCT,0.03,0.0,WeatherDisplay:10.37,2013-03-31 05:40:00,
2013-03-30 19:50:00,63.3,61.2,29.95,ENE,59,2.0,3.0,93,0.00,BKN,SCT,0.03,0.0,WeatherDisplay:10.37,2013-03-31 05:50:00,
2013-03-30 20:00:00,63.0,60.6,29.95,East,84,0.0,2.0,92,0.00,BKN,SCT,0.03,0.0,WeatherDisplay:10.37,2013-03-31 06:00:00,
2013-03-30 20:10:00,62.5,60.2,29.95,East,84,1.0,3.0,92,0.00,SCT,SCT,0.03,0.0,WeatherDisplay:10.37,2013-03-31 06:10:00,
2013-03-30 20:20:00,62.1,59.7,29.96,East,83,0.0,3.0,92,0.00,SCT,SCT,0.03,0.0,WeatherDisplay:10.37,2013-03-31 06:20:00,
2013-03-30 20:30:00,61.7,59.4,29.96,East,83,0.0,2.0,92,0.00,SCT,SCT,0.03,0.0,WeatherDisplay:10.37,2013-03-31 06:30:00,
2013-03-30 20:40:00,61.3,59.0,29.96,East,83,0.0,3.0,92,0.00,SCT,SCT,0.03,0.0,WeatherDisplay:10.37,2013-03-31 06:40:00,
2013-03-30 20:50:00,61.1,59.1,29.97,East,83,0.0,1.0,93,0.00,SCT,SCT,0.03,0.0,WeatherDisplay:10.37,2013-03-31 06:50:00,
2013-03-30 21:00:00,60.9,58.9,29.97,East,83,0.0,3.0,93,0.00,SCT,SCT,0.03,0.0,WeatherDisplay:10.37,2013-03-31 07:00:00,
2013-03-30 21:10:00,60.7,58.7,29.97,East,83,1.0,4.0,93,0.00,SCT,SCT,0.03,0.0,WeatherDisplay:10.37,2013-03-31 07:10:00,
2013-03-30 21:20:00,60.5,58.5,29.97,East,83,0.0,4.0,93,0.00,SCT,SCT,0.03,0.0,WeatherDisplay:10.37,2013-03-31 07:20:00,
2013-03-30 21:30:00,60.3,58.3,29.97,East,83,0.0,4.0,93,0.00,SCT,SCT,0.03,0.0,WeatherDisplay:10.37,2013-03-31 07:30:00,
2013-03-30 21:40:00,60.1,58.1,29.97,East,86,0.0,5.0,93,0.00,SCT,SCT,0.03,0.0,WeatherDisplay:10.37,2013-03-31 07:40:00,
2013-03-30 22:00:00,59.7,57.7,29.97,East,87,1.0,4.0,93,0.00,SCT,SCT,0.03,0.0,WeatherDisplay:10.37,2013-03-31 08:00:00,
2013-03-30 22:10:00,59.6,57.6,29.97,East,88,1.0,5.0,93,0.00,SCT,SCT,0.03,0.0,WeatherDisplay:10.37,2013-03-31 08:10:00,
2013-03-30 22:20:00,59.5,57.2,29.97,East,91,2.0,4.0,92,0.00,SCT,SCT,0.03,0.0,WeatherDisplay:10.37,2013-03-31 08:20:00,
2013-03-30 22:30:00,59.5,56.9,29.97,East,92,2.0,4.0,91,0.00,SCT,SCT,0.03,0.0,WeatherDisplay:10.37,2013-03-31 08:30:00,
2013-03-30 22:40:00,59.3,56.4,29.97,East,92,0.0,5.0,90,0.01,RA,SCT,0.04,0.0,WeatherDisplay:10.37,2013-03-31 08:40:00,
2013-03-30 22:50:00,59.1,56.2,29.97,East,92,2.0,4.0,90,0.00,SCT,SCT,0.04,0.0,WeatherDisplay:10.37,2013-03-31 08:50:00,
2013-03-30 23:00:00,59.0,56.0,29.97,East,100,3.0,5.0,90,0.00,SCT,SCT,0.04,0.0,WeatherDisplay:10.37,2013-03-31 09:00:00,
2013-03-30 23:10:00,58.9,56.0,29.97,ESE,102,0.0,4.0,90,0.00,SCT,SCT,0.04,0.0,WeatherDisplay:10.37,2013-03-31 09:10:00,
2013-03-30 23:20:00,58.7,55.8,29.96,ESE,102,0.0,3.0,90,0.00,BKN,SCT,0.04,0.0,WeatherDisplay:10.37,2013-03-31 09:20:00,
2013-03-30 23:30:00,58.6,56.0,29.97,ESE,102,0.0,3.0,91,0.00,BKN,SCT,0.04,0.0,WeatherDisplay:10.37,2013-03-31 09:30:00,
2013-03-30 23:40:00,58.5,55.9,29.97,ESE,102,0.0,3.0,91,0.00,BKN,SCT,0.04,0.0,WeatherDisplay:10.37,2013-03-31 09:40:00,
2013-03-30 23:50:00,58.5,56.2,29.96,ESE,102,1.0,3.0,92,0.00,BKN,SCT,0.04,0.0,WeatherDisplay:10.37,2013-03-31 09:50:00,